Pipestone, MN

7:57 PM CST on February 06, 2016 (GMT -0600)
Pipestone Municipal

Weather History for KPQN - October, 2012

Change the Weather History Date:

Sunday, October 7, 2012

  Actual Average Record
Temperature  
Mean Temperature 38 °F -  
Max Temperature 55 °F 62 °F 84 °F (2006)
Min Temperature 21 °F 39 °F 21 °F (2012)
Degree Days  
Heating Degree Days 27    
Moisture  
Dew Point 18 °F    
Average Humidity 52    
Maximum Humidity 86    
Minimum Humidity 20    
Precipitation  
Precipitation 0.00 in - - ()
Sea Level Pressure  
Sea Level Pressure 30.04 in    
Wind  
Wind Speed 6 mph (SW)    
Max Wind Speed 16 mph    
Max Gust Speed 24 mph    
Visibility 10 miles    
Events      
Averages and records for this station are not official NWS values.
T = Trace of Precipitation, MM = Missing Value Source: NWS Daily Summary

Daily Weather History Graph

Daily Weather History Graph

Search for Another Location

Airport or City:

Trip Planner

Search our weather history database for the weather conditions in past years. The results will help you decide how hot, cold, wet, or windy it might be!

Date:

Astronomy

Oct. 07, 2012 Rise Set
Actual Time 7:30 AM CDT 6:54 PM CDT
Civil Twilight 7:01 AM CDT 7:23 PM CDT
Nautical Twilight 6:28 AM CDT 7:56 PM CDT
Astronomical Twilight 5:54 AM CDT 8:30 PM CDT
Moon 11:59 PM CDT 2:16 PM CDT
Length of Visible Light 12h 21m
Length of Day
11h 23m
Waning Gibbous, 56% of the Moon is Illuminated
Oct 7
Waning Gibbous
Oct 8
Last Quarter
Oct 15
New
Oct 21
First Quarter
Oct 29
Full

Hourly Weather History & Observations

Time (CDT) Temp. Windchill Dew Point Humidity Pressure Visibility Wind Dir Wind Speed Gust Speed Precip Events Conditions
12:13 AM 21.2 °F - 17.6 °F 86% 30.25 in 10.0 mi Calm Calm - N/A   Clear
12:33 AM 24.8 °F - 19.4 °F 80% 30.24 in 10.0 mi Calm Calm - N/A   Clear
12:53 AM 23.0 °F - 17.6 °F 80% 30.24 in 10.0 mi Calm Calm - N/A   Clear
1:14 AM 23.0 °F - 19.4 °F 86% 30.23 in 10.0 mi Calm Calm - N/A   Clear
1:33 AM 23.0 °F - 17.6 °F 80% 30.23 in 10.0 mi Calm Calm - N/A   Clear
1:53 AM 21.2 °F 16.4 °F 17.6 °F 86% 30.23 in 10.0 mi SW 3.5 mph - N/A   Clear
2:13 AM 21.2 °F 16.4 °F 17.6 °F 86% 30.22 in 10.0 mi SSW 3.5 mph - N/A   Clear
2:33 AM 21.2 °F - 17.6 °F 86% 30.22 in 10.0 mi Calm Calm - N/A   Clear
2:53 AM 21.2 °F 14.9 °F 17.6 °F 86% 30.22 in 10.0 mi SW 4.6 mph - N/A   Clear
3:13 AM 21.2 °F 14.9 °F 17.6 °F 86% 30.21 in 10.0 mi SW 4.6 mph - N/A   Clear
3:53 AM 23.0 °F 17.0 °F 17.6 °F 80% 30.20 in 10.0 mi SW 4.6 mph - N/A   Clear
4:13 AM 23.0 °F 17.0 °F 17.6 °F 80% 30.19 in 10.0 mi SW 4.6 mph - N/A   Clear
4:33 AM 23.0 °F 17.0 °F 17.6 °F 80% 30.19 in 10.0 mi SSW 4.6 mph - N/A   Clear
4:53 AM 21.2 °F 14.9 °F 17.6 °F 86% 30.18 in 10.0 mi SW 4.6 mph - N/A   Clear
5:13 AM 23.0 °F 17.0 °F 17.6 °F 80% 30.18 in 10.0 mi SW 4.6 mph - N/A   Clear
5:33 AM 21.2 °F 14.9 °F 17.6 °F 86% 30.17 in 10.0 mi SW 4.6 mph - N/A   Clear
5:53 AM 23.0 °F 18.4 °F 17.6 °F 80% 30.17 in 10.0 mi SW 3.5 mph - N/A   Clear
6:13 AM 21.2 °F 14.9 °F 17.6 °F 86% 30.16 in 10.0 mi SW 4.6 mph - N/A   Clear
6:33 AM 21.2 °F 14.9 °F 17.6 °F 86% 30.16 in 10.0 mi SW 4.6 mph - N/A   Clear
6:54 AM 21.2 °F 14.9 °F 17.6 °F 86% 30.16 in 10.0 mi SW 4.6 mph - N/A   Clear
7:13 AM 21.2 °F 16.4 °F 17.6 °F 86% 30.15 in 10.0 mi SW 3.5 mph - N/A   Clear
7:33 AM 21.2 °F 14.9 °F 17.6 °F 86% 30.15 in 10.0 mi SW 4.6 mph - N/A   Clear
7:53 AM 21.2 °F 13.6 °F 17.6 °F 86% 30.15 in 10.0 mi SW 5.8 mph - N/A   Clear
8:13 AM 24.8 °F 16.9 °F 19.4 °F 80% 30.14 in 10.0 mi SW 6.9 mph - N/A   Clear
8:33 AM 26.6 °F 20.0 °F 19.4 °F 74% 30.13 in 10.0 mi SW 5.8 mph - N/A   Clear
8:53 AM 30.2 °F 21.9 °F 21.2 °F 69% 30.12 in 10.0 mi SW 9.2 mph - N/A   Clear
9:13 AM 32.0 °F 25.6 °F 23.0 °F 69% 30.12 in 10.0 mi SW 6.9 mph - N/A   Clear
9:33 AM 33.8 °F 26.4 °F 23.0 °F 65% 30.12 in 10.0 mi SW 9.2 mph - N/A   Clear
9:53 AM 35.6 °F 28.0 °F 23.0 °F 60% 30.11 in 10.0 mi SW 10.4 mph - N/A   Clear
10:13 AM 39.2 °F 31.6 °F 21.2 °F 49% 30.10 in 10.0 mi SW 12.7 mph 17.3 mph N/A   Clear
10:33 AM 39.2 °F 31.2 °F 23.0 °F 52% 30.10 in 10.0 mi SW 13.8 mph - N/A   Clear
10:53 AM 42.8 °F 36.6 °F 24.8 °F 49% 30.09 in 10.0 mi WSW 11.5 mph 17.3 mph N/A   Clear
11:13 AM 42.8 °F 36.6 °F 24.8 °F 49% 30.09 in 10.0 mi WSW 11.5 mph - N/A   Clear
11:33 AM 44.6 °F 37.8 °F 24.8 °F 46% 30.08 in 10.0 mi WSW 15.0 mph 19.6 mph N/A   Clear
11:53 AM 46.4 °F 41.1 °F 23.0 °F 40% 30.07 in 10.0 mi WSW 11.5 mph 18.4 mph N/A   Clear
12:13 PM 48.2 °F - 21.2 °F 34% 30.06 in 10.0 mi WSW 12.7 mph - N/A   Clear
12:33 PM 50.0 °F - 19.4 °F 30% 30.05 in 10.0 mi WSW 16.1 mph 20.7 mph N/A   Clear
12:53 PM 51.8 °F - 15.8 °F 24% 30.04 in 10.0 mi WSW 13.8 mph 24.2 mph N/A   Clear
1:33 PM 53.6 °F - 15.8 °F 22% 30.01 in 10.0 mi West 15.0 mph 20.7 mph N/A   Clear
1:53 PM 53.6 °F - 15.8 °F 22% 30.00 in 10.0 mi West 15.0 mph 20.7 mph N/A   Clear
2:13 PM 53.6 °F - 15.8 °F 22% 29.99 in 10.0 mi WSW 15.0 mph 21.9 mph N/A   Clear
2:33 PM 53.6 °F - 15.8 °F 22% 29.98 in 10.0 mi West 16.1 mph 24.2 mph N/A   Clear
2:53 PM 53.6 °F - 15.8 °F 22% 29.97 in 10.0 mi WSW 12.7 mph 19.6 mph N/A   Clear
3:13 PM 55.4 °F - 15.8 °F 21% 29.96 in 10.0 mi WSW 12.7 mph 20.7 mph N/A   Clear
3:33 PM 55.4 °F - 17.6 °F 23% 29.95 in 10.0 mi WSW 12.7 mph 24.2 mph N/A   Clear
3:53 PM 55.4 °F - 15.8 °F 21% 29.94 in 10.0 mi WSW 13.8 mph - N/A   Clear
4:13 PM 55.4 °F - 17.6 °F 23% 29.94 in 10.0 mi WSW 16.1 mph 23.0 mph N/A   Clear
4:33 PM 55.4 °F - 15.8 °F 21% 29.92 in 10.0 mi WSW 15.0 mph 20.7 mph N/A   Clear
4:54 PM 55.4 °F - 15.8 °F 21% 29.92 in 10.0 mi WSW 16.1 mph - N/A   Clear
5:13 PM 55.4 °F - 14.0 °F 20% 29.92 in 10.0 mi West 15.0 mph 20.7 mph N/A   Clear
5:33 PM 55.4 °F - 14.0 °F 20% 29.91 in 10.0 mi West 13.8 mph - N/A   Clear
5:54 PM 55.4 °F - 15.8 °F 21% 29.91 in 10.0 mi West 10.4 mph 16.1 mph N/A   Scattered Clouds
6:13 PM 53.6 °F - 15.8 °F 22% 29.90 in 10.0 mi West 9.2 mph - N/A   Scattered Clouds
6:33 PM 51.8 °F - 15.8 °F 24% 29.90 in 10.0 mi WSW 6.9 mph - N/A   Scattered Clouds
6:53 PM 48.2 °F - 15.8 °F 27% 29.89 in 10.0 mi WSW 3.5 mph - N/A   Scattered Clouds
7:13 PM 46.4 °F 44.3 °F 15.8 °F 29% 29.89 in 10.0 mi WSW 4.6 mph - N/A   Clear
7:33 PM 42.8 °F 41.1 °F 14.0 °F 31% 29.90 in 10.0 mi WSW 3.5 mph - N/A   Clear
7:50 PM 42.8 °F 40.1 °F 14.0 °F 31% 29.90 in 10.0 mi WSW 4.6 mph - N/A   Clear
8:13 PM 41.0 °F 39.0 °F 14.0 °F 33% 29.89 in 10.0 mi SW 3.5 mph - N/A   Clear
8:33 PM 41.0 °F 38.0 °F 15.8 °F 36% 29.89 in 10.0 mi SSW 4.6 mph - N/A   Scattered Clouds
8:54 PM 41.0 °F 37.1 °F 15.8 °F 36% 29.89 in 10.0 mi SSW 5.8 mph - N/A   Scattered Clouds
9:13 PM 41.0 °F 38.0 °F 15.8 °F 36% 29.88 in 10.0 mi South 4.6 mph - N/A   Scattered Clouds
9:33 PM 39.2 °F 35.0 °F 17.6 °F 42% 29.88 in 10.0 mi South 5.8 mph - N/A   Clear
9:54 PM 37.4 °F 33.8 °F 17.6 °F 45% 29.88 in 10.0 mi SSW 4.6 mph - N/A   Clear
10:13 PM 37.4 °F 32.8 °F 15.8 °F 41% 29.87 in 10.0 mi SSW 5.8 mph - N/A   Clear
10:33 PM 37.4 °F 33.8 °F 15.8 °F 41% 29.87 in 10.0 mi SSW 4.6 mph - N/A   Clear
10:53 PM 35.6 °F 31.7 °F 15.8 °F 44% 29.86 in 10.0 mi SSW 4.6 mph - N/A   Clear
11:13 PM 33.8 °F 29.6 °F 15.8 °F 48% 29.86 in 10.0 mi SSW 4.6 mph - N/A   Clear
11:33 PM 35.6 °F 29.9 °F 15.8 °F 44% 29.86 in 10.0 mi South 6.9 mph - N/A   Clear
11:53 PM 35.6 °F - 15.8 °F 44% 29.85 in 10.0 mi Calm Calm - N/A   Clear